createdAt,value
2023-02-24T00:00:32.262Z,41.72
2023-02-24T00:03:05.959Z,37.20
2023-02-24T00:05:38.738Z,35.47
2023-02-24T00:08:06.167Z,40.88
2023-02-24T00:10:32.936Z,29.00
2023-02-24T00:12:59.662Z,33.90
2023-02-24T00:15:26.559Z,40.58
2023-02-24T00:17:53.238Z,40.92
2023-02-24T00:20:20.139Z,44.58
2023-02-24T00:22:46.857Z,39.83
2023-02-24T00:25:14.700Z,43.08
2023-02-24T00:27:42.649Z,46.38
2023-02-24T00:30:11.523Z,39.15
2023-02-24T00:32:38.423Z,37.38
2023-02-24T00:35:05.797Z,43.97
2023-02-24T00:37:32.999Z,40.97
2023-02-24T00:39:59.629Z,38.33
2023-02-24T00:42:26.320Z,46.97
2023-02-24T00:44:54.202Z,42.05
2023-02-24T00:47:22.514Z,43.30
2023-02-24T00:52:28.168Z,44.08
2023-02-24T00:54:54.835Z,45.85
2023-02-24T01:00:00.744Z,44.83
2023-02-24T01:02:27.446Z,43.53
2023-02-24T01:04:54.087Z,46.40
2023-02-24T01:07:20.924Z,48.88
2023-02-24T01:09:50.747Z,44.63
2023-02-24T01:12:35.840Z,42.95
2023-02-24T01:15:03.266Z,38.80
2023-02-24T01:17:29.996Z,43.53
2023-02-24T01:20:00.431Z,42.45
2023-02-24T01:22:27.384Z,43.58
2023-02-24T01:24:54.011Z,46.65
2023-02-24T01:27:20.715Z,48.00
2023-02-24T01:33:39.372Z,41.63
2023-02-24T01:36:15.111Z,43.45
2023-02-24T01:38:45.426Z,50.22
2023-02-24T01:41:16.930Z,41.17
2023-02-24T01:44:09.381Z,43.85
2023-02-24T01:46:39.052Z,48.22
2023-02-24T01:49:21.582Z,40.03
2023-02-24T01:51:54.497Z,38.63
2023-02-24T01:54:25.108Z,39.45
2023-02-24T01:56:53.516Z,38.97
2023-02-24T01:59:23.850Z,39.50
2023-02-24T02:01:54.593Z,37.95
2023-02-24T02:04:34.409Z,39.75
2023-02-24T02:07:01.505Z,43.53
2023-02-24T02:09:28.630Z,42.35
2023-02-24T02:11:55.329Z,41.72
2023-02-24T02:14:25.916Z,40.40
2023-02-24T02:17:17.274Z,37.38
2023-02-24T02:20:15.707Z,36.35
2023-02-24T02:22:59.336Z,41.95
2023-02-24T02:25:54.808Z,42.10
2023-02-24T02:28:57.056Z,40.78
2023-02-24T02:31:29.174Z,43.10
2023-02-24T02:34:13.947Z,42.72
2023-02-24T02:36:51.867Z,35.55
2023-02-24T02:39:37.012Z,45.83
2023-02-24T02:45:08.706Z,36.53
2023-02-24T02:47:44.289Z,44.33
2023-02-24T02:50:21.521Z,39.58
2023-02-24T02:52:58.026Z,36.13
2023-02-24T02:55:27.027Z,32.90
2023-02-24T02:57:57.014Z,41.42
2023-02-24T03:00:30.038Z,32.33
2023-02-24T03:03:04.243Z,38.47
2023-02-24T03:05:38.077Z,26.90
2023-02-24T03:08:11.569Z,35.20
2023-02-24T03:10:41.937Z,39.08
2023-02-24T03:13:13.405Z,33.15
2023-02-24T03:15:44.857Z,32.72
2023-02-24T03:18:19.179Z,36.28
2023-02-24T03:20:52.541Z,38.17
2023-02-24T03:23:26.016Z,33.63
2023-02-24T03:26:23.477Z,34.80
2023-02-24T03:29:24.378Z,36.25
2023-02-24T03:31:59.782Z,35.58
2023-02-24T03:34:58.369Z,33.67
2023-02-24T03:37:28.228Z,32.65
2023-02-24T03:39:57.954Z,33.45
2023-02-24T03:42:32.777Z,28.48
2023-02-24T03:47:26.959Z,34.33
2023-02-24T03:49:53.589Z,35.75
2023-02-24T03:52:47.476Z,30.75
2023-02-24T03:55:37.847Z,39.75
2023-02-24T03:58:18.631Z,34.42
2023-02-24T04:01:13.439Z,32.85
2023-02-24T04:04:03.587Z,37.22
2023-02-24T04:06:33.510Z,36.78
2023-02-24T04:09:12.349Z,34.72
2023-02-24T04:12:09.399Z,29.80
2023-02-24T04:14:49.704Z,27.98
2023-02-24T04:17:26.456Z,30.60
2023-02-24T04:19:57.862Z,30.17
2023-02-24T04:22:27.178Z,34.70
2023-02-24T04:24:59.830Z,31.13
2023-02-24T04:27:28.498Z,32.50
2023-02-24T04:30:00.141Z,34.90
2023-02-24T04:32:29.758Z,30.35
2023-02-24T04:35:12.383Z,28.23
2023-02-24T04:37:44.764Z,31.80
2023-02-24T04:40:17.798Z,30.48
2023-02-24T04:42:49.053Z,31.67
2023-02-24T04:45:30.792Z,30.52
2023-02-24T04:48:10.559Z,25.90
2023-02-24T04:50:37.229Z,25.52
2023-02-24T04:53:09.371Z,30.88
2023-02-24T04:55:40.525Z,31.92
2023-02-24T04:58:19.397Z,30.60
2023-02-24T05:00:53.002Z,31.30
2023-02-24T05:03:22.462Z,25.98
2023-02-24T05:05:56.805Z,29.75
2023-02-24T05:08:25.569Z,30.55
2023-02-24T05:10:52.273Z,29.83
2023-02-24T05:13:24.192Z,26.85
2023-02-24T05:15:50.849Z,27.98
2023-02-24T05:18:17.853Z,24.77
2023-02-24T05:21:05.849Z,28.08
2023-02-24T05:23:44.782Z,29.08
2023-02-24T05:26:17.682Z,26.65
2023-02-24T05:28:49.367Z,26.08
2023-02-24T05:31:22.212Z,25.55
2023-02-24T05:33:57.818Z,27.77
2023-02-24T05:36:27.796Z,23.88
2023-02-24T05:38:59.577Z,22.52
2023-02-24T05:41:35.972Z,23.00
2023-02-24T05:44:08.581Z,24.95
2023-02-24T05:46:38.644Z,26.05
2023-02-24T05:49:14.395Z,24.75
2023-02-24T05:51:54.665Z,24.90
2023-02-24T05:54:30.674Z,22.23
2023-02-24T05:57:03.426Z,20.25
2023-02-24T05:59:33.566Z,19.67
2023-02-24T06:02:07.379Z,20.27
2023-02-24T06:04:45.942Z,24.95
2023-02-24T06:07:25.066Z,21.70
2023-02-24T06:09:57.837Z,21.02
2023-02-24T06:12:30.995Z,21.92
2023-02-24T06:14:58.399Z,26.70
2023-02-24T06:17:25.708Z,20.50
2023-02-24T06:19:53.840Z,21.58
2023-02-24T06:22:23.174Z,24.75
2023-02-24T06:24:50.206Z,23.38
2023-02-24T06:27:19.233Z,25.70
2023-02-24T06:29:50.206Z,17.23
2023-02-24T06:32:22.346Z,22.25
2023-02-24T06:34:49.365Z,19.45
2023-02-24T06:37:16.606Z,20.35
2023-02-24T06:39:43.565Z,25.65
2023-02-24T06:42:12.011Z,17.33
2023-02-24T06:44:40.494Z,19.38
2023-02-24T06:47:11.059Z,23.30
2023-02-24T06:49:37.789Z,18.88
2023-02-24T06:52:04.893Z,18.85
2023-02-24T06:54:36.039Z,20.17
2023-02-24T06:57:03.849Z,24.48
2023-02-24T06:59:31.222Z,29.45
2023-02-24T07:01:59.968Z,18.85
2023-02-24T07:04:28.890Z,24.70
2023-02-24T07:06:58.139Z,18.58
2023-02-24T07:09:26.653Z,21.25
2023-02-24T07:11:56.131Z,18.33
2023-02-24T07:14:25.519Z,18.60
2023-02-24T07:16:54.604Z,19.25
2023-02-24T07:19:25.742Z,19.58
2023-02-24T07:22:03.305Z,18.08
2023-02-24T07:24:36.924Z,18.50
2023-02-24T07:27:07.571Z,15.93
2023-02-24T07:29:35.575Z,18.30
2023-02-24T07:32:05.816Z,21.15
2023-02-24T07:34:33.973Z,17.25
2023-02-24T07:37:06.655Z,20.50
2023-02-24T07:39:34.278Z,21.23
2023-02-24T07:42:00.926Z,18.70
2023-02-24T07:44:29.404Z,18.98
2023-02-24T07:46:59.246Z,20.27
2023-02-24T07:49:28.048Z,18.73
2023-02-24T07:51:57.848Z,15.27
2023-02-24T07:54:27.362Z,17.38
2023-02-24T07:56:57.107Z,13.65
2023-02-24T07:59:29.736Z,13.00
2023-02-24T08:01:57.149Z,17.40
2023-02-24T08:04:30.169Z,11.68
2023-02-24T08:06:58.962Z,17.73
2023-02-24T08:09:46.647Z,16.45
2023-02-24T08:12:21.866Z,16.23
2023-02-24T08:14:51.759Z,14.93
2023-02-24T08:17:26.787Z,14.73
2023-02-24T08:20:15.724Z,14.95
2023-02-24T08:22:46.722Z,12.50
2023-02-24T08:25:19.308Z,19.95
2023-02-24T08:28:06.875Z,12.57
2023-02-24T08:30:39.173Z,13.52
2023-02-24T08:33:09.502Z,11.38
2023-02-24T08:35:44.732Z,18.88
2023-02-24T08:38:20.940Z,13.57
2023-02-24T08:40:52.494Z,15.05
2023-02-24T08:43:33.163Z,10.95
2023-02-24T08:46:21.609Z,13.27
2023-02-24T08:48:49.770Z,20.38
2023-02-24T08:51:23.226Z,19.10
2023-02-24T08:53:55.832Z,16.02
2023-02-24T08:56:25.126Z,15.27
2023-02-24T08:59:07.832Z,14.80
2023-02-24T09:01:39.762Z,15.70
2023-02-24T09:04:09.859Z,13.57
2023-02-24T09:07:10.847Z,14.30
2023-02-24T09:09:42.300Z,11.82
2023-02-24T09:12:12.569Z,13.00
2023-02-24T09:14:39.245Z,12.30
2023-02-24T09:17:11.670Z,15.00
2023-02-24T09:19:47.838Z,15.02
2023-02-24T09:22:32.380Z,13.45
2023-02-24T09:25:18.133Z,15.00
2023-02-24T09:28:09.174Z,14.52
2023-02-24T09:30:55.816Z,14.32
2023-02-24T09:33:29.864Z,10.10
2023-02-24T09:36:12.918Z,21.77
2023-02-24T09:39:02.001Z,12.68
2023-02-24T09:42:18.094Z,9.90
2023-02-24T09:44:52.874Z,17.27
2023-02-24T09:47:39.726Z,8.73
2023-02-24T09:50:40.608Z,15.70
2023-02-24T09:53:17.580Z,11.93
2023-02-24T09:56:00.336Z,11.52
2023-02-24T09:58:44.106Z,8.35
2023-02-24T10:01:43.094Z,11.00
2023-02-24T10:04:49.254Z,14.48
2023-02-24T10:07:22.861Z,11.23
2023-02-24T10:10:26.131Z,11.63
2023-02-24T10:13:30.448Z,10.30
2023-02-24T10:16:06.116Z,12.30
2023-02-24T10:18:33.276Z,16.77
2023-02-24T10:21:18.524Z,10.52
2023-02-24T10:24:05.683Z,12.93
2023-02-24T10:27:01.277Z,14.38
2023-02-24T10:30:04.388Z,9.65
2023-02-24T10:32:34.017Z,13.68
2023-02-24T10:35:03.814Z,14.23
2023-02-24T10:37:30.503Z,9.30
2023-02-24T10:40:13.121Z,8.93
2023-02-24T10:42:48.903Z,13.55
2023-02-24T10:45:24.548Z,11.48
2023-02-24T10:47:57.199Z,10.73
2023-02-24T10:50:24.254Z,10.82
2023-02-24T10:52:57.319Z,12.10
2023-02-24T10:55:39.313Z,12.57
2023-02-24T10:58:07.380Z,9.25
2023-02-24T11:01:01.153Z,12.15
2023-02-24T11:03:46.532Z,8.55
2023-02-24T11:06:42.070Z,14.35
2023-02-24T11:12:05.574Z,9.73
2023-02-24T11:14:58.289Z,9.18
2023-02-24T11:17:28.108Z,10.70
2023-02-24T11:20:01.003Z,10.95
2023-02-24T11:22:37.789Z,13.65
2023-02-24T11:25:14.504Z,14.32
2023-02-24T11:27:43.160Z,16.75
2023-02-24T11:30:25.829Z,14.13
2023-02-24T11:33:13.450Z,19.75
2023-02-24T11:36:05.238Z,10.18
2023-02-24T11:38:44.794Z,13.70
2023-02-24T11:41:27.842Z,13.27
2023-02-24T11:44:28.386Z,14.68
2023-02-24T11:47:00.752Z,18.58
2023-02-24T11:49:31.712Z,15.30
2023-02-24T11:52:01.085Z,16.90
2023-02-24T11:54:37.634Z,21.30
2023-02-24T11:57:11.342Z,12.75
2023-02-24T11:59:45.522Z,16.27
2023-02-24T12:02:44.331Z,15.80
2023-02-24T12:05:17.010Z,12.35
2023-02-24T12:07:52.613Z,17.30
2023-02-24T12:10:25.417Z,14.13
2023-02-24T12:13:27.676Z,16.15
2023-02-24T12:16:03.200Z,14.25
2023-02-24T12:18:34.354Z,15.85
2023-02-24T12:21:10.155Z,20.00
2023-02-24T12:23:48.488Z,19.02
2023-02-24T12:26:24.286Z,22.80
2023-02-24T12:29:03.187Z,20.60
2023-02-24T12:31:45.851Z,17.67
2023-02-24T12:34:36.046Z,22.65
2023-02-24T12:37:26.413Z,22.67
2023-02-24T12:40:11.723Z,21.98
2023-02-24T12:43:02.327Z,26.85
2023-02-24T12:45:41.214Z,20.98
2023-02-24T12:48:08.016Z,21.75
2023-02-24T12:50:53.017Z,24.33
2023-02-24T12:53:58.462Z,21.55
2023-02-24T12:56:31.759Z,20.63
2023-02-24T12:59:05.579Z,24.70
2023-02-24T13:01:40.940Z,20.77
2023-02-24T13:04:48.264Z,20.80
2023-02-24T13:07:39.015Z,21.25
2023-02-24T13:10:18.946Z,17.92
2023-02-24T13:13:02.185Z,17.75
2023-02-24T13:15:32.424Z,19.88
2023-02-24T13:17:59.360Z,18.70
2023-02-24T13:20:27.704Z,25.08
2023-02-24T13:22:55.246Z,18.90
2023-02-24T13:25:30.049Z,16.88
2023-02-24T13:30:59.285Z,28.50
2023-02-24T13:33:48.511Z,17.80
2023-02-24T13:36:21.780Z,19.88
2023-02-24T13:38:51.495Z,19.30
2023-02-24T13:41:27.230Z,21.98
2023-02-24T13:44:01.053Z,19.10
2023-02-24T13:46:50.618Z,23.55
2023-02-24T13:49:29.234Z,18.95
2023-02-24T13:52:32.728Z,20.05
2023-02-24T13:55:08.621Z,19.92
2023-02-24T13:57:53.843Z,17.70
2023-02-24T14:02:53.021Z,19.88
2023-02-24T14:05:27.616Z,21.38
2023-02-24T14:07:55.808Z,21.15
2023-02-24T14:10:29.931Z,19.98
2023-02-24T14:13:16.418Z,19.27
2023-02-24T14:15:46.072Z,15.50
2023-02-24T14:18:33.055Z,14.27
2023-02-24T14:20:59.758Z,13.32
2023-02-24T14:23:29.479Z,15.25
2023-02-24T14:26:08.276Z,15.77
2023-02-24T14:28:37.480Z,20.20
2023-02-24T14:31:10.811Z,22.08
2023-02-24T14:33:39.726Z,38.67
2023-02-24T14:36:14.432Z,34.55
2023-02-24T14:38:41.444Z,28.05
2023-02-24T14:41:20.642Z,20.00
2023-02-24T14:43:47.259Z,15.70
2023-02-24T14:46:13.978Z,15.40
2023-02-24T14:48:40.688Z,14.18
2023-02-24T14:51:22.906Z,19.83
2023-02-24T14:53:53.387Z,18.45
2023-02-24T14:56:23.850Z,21.70
2023-02-24T14:58:58.058Z,26.13
2023-02-24T15:01:33.596Z,20.40
2023-02-24T15:04:11.282Z,19.42
2023-02-24T15:06:41.086Z,16.67
2023-02-24T15:09:16.037Z,13.88
2023-02-24T15:11:43.077Z,12.32
2023-02-24T15:14:22.037Z,14.50
2023-02-24T15:16:53.129Z,17.15
2023-02-24T15:19:37.873Z,15.38
2023-02-24T15:22:20.816Z,22.85
2023-02-24T15:24:47.897Z,12.75
2023-02-24T15:27:14.508Z,12.95
2023-02-24T15:29:42.456Z,20.88
2023-02-24T15:32:21.598Z,17.52
2023-02-24T15:34:48.419Z,16.75
2023-02-24T15:37:28.620Z,19.55
2023-02-24T15:40:08.257Z,12.70
2023-02-24T15:42:35.634Z,15.45
2023-02-24T15:45:23.016Z,18.65
2023-02-24T15:47:56.682Z,16.95
2023-02-24T15:50:24.084Z,19.70
2023-02-24T15:52:51.112Z,15.55
2023-02-24T15:55:19.997Z,21.95
2023-02-24T15:57:48.614Z,21.83
2023-02-24T16:00:18.339Z,21.38
2023-02-24T16:02:45.805Z,22.65
2023-02-24T16:05:13.918Z,20.80
2023-02-24T16:07:43.376Z,24.63
2023-02-24T16:10:25.777Z,19.58
2023-02-24T16:12:56.093Z,33.50
2023-02-24T16:15:27.058Z,32.42
2023-02-24T16:17:54.388Z,24.70
2023-02-24T16:20:31.606Z,24.23
2023-02-24T16:23:00.254Z,26.80
2023-02-24T16:25:29.245Z,25.17
2023-02-24T16:27:58.675Z,22.02
2023-02-24T16:30:30.424Z,21.85
2023-02-24T16:32:58.801Z,22.83
2023-02-24T16:35:26.857Z,23.33
2023-02-24T16:37:54.124Z,25.63
2023-02-24T16:40:28.046Z,18.90
2023-02-24T16:42:54.694Z,27.23
2023-02-24T16:45:25.843Z,20.85
2023-02-24T16:47:54.224Z,32.35
2023-02-24T16:50:24.430Z,20.20
2023-02-24T16:52:51.107Z,21.92
2023-02-24T16:55:18.646Z,20.17
2023-02-24T16:57:45.293Z,25.15
2023-02-24T17:00:14.354Z,22.27
2023-02-24T17:02:43.080Z,21.63
2023-02-24T17:05:21.808Z,25.25
2023-02-24T17:07:50.992Z,22.15
2023-02-24T17:10:19.141Z,18.73
2023-02-24T17:12:46.433Z,32.88
2023-02-24T17:15:15.762Z,22.00
2023-02-24T17:17:42.998Z,20.08
2023-02-24T17:20:13.449Z,17.17
2023-02-24T17:22:40.138Z,18.90
2023-02-24T17:25:07.367Z,18.15
2023-02-24T17:27:34.196Z,21.75
2023-02-24T17:30:00.828Z,21.30
2023-02-24T17:32:27.649Z,23.52
2023-02-24T17:34:54.493Z,25.23
2023-02-24T17:37:21.202Z,23.45
2023-02-24T17:39:47.856Z,24.20
2023-02-24T17:42:14.539Z,28.20
2023-02-24T17:44:41.200Z,24.33
2023-02-24T17:47:09.096Z,32.38
2023-02-24T17:49:35.722Z,21.88
2023-02-24T17:52:04.639Z,25.85
2023-02-24T17:54:32.823Z,23.33
2023-02-24T17:56:59.469Z,27.92
2023-02-24T17:59:26.088Z,20.50
2023-02-24T18:01:54.007Z,26.48
2023-02-24T18:04:20.721Z,27.60
2023-02-24T18:06:47.538Z,32.13
2023-02-24T18:09:14.189Z,21.95
2023-02-24T18:11:40.905Z,28.95
2023-02-24T18:14:07.565Z,22.60
2023-02-24T18:16:34.237Z,29.77
2023-02-24T18:19:00.937Z,26.00
2023-02-24T18:21:27.542Z,30.55
2023-02-24T18:23:54.222Z,25.95
2023-02-24T18:26:24.158Z,23.38
2023-02-24T18:28:53.835Z,28.13
2023-02-24T18:31:23.632Z,27.13
2023-02-24T18:33:50.354Z,34.00
2023-02-24T18:36:18.214Z,29.90
2023-02-24T18:38:45.329Z,30.27
2023-02-24T18:41:17.136Z,27.10
2023-02-24T18:43:44.509Z,28.52
2023-02-24T18:46:13.572Z,23.90
2023-02-24T18:48:41.430Z,31.48
2023-02-24T18:51:10.849Z,28.10
2023-02-24T18:53:38.056Z,28.88
2023-02-24T18:56:07.152Z,33.72
2023-02-24T18:58:34.886Z,30.73
2023-02-24T19:01:01.544Z,26.02
2023-02-24T19:03:28.186Z,27.50
2023-02-24T19:05:54.874Z,26.13
2023-02-24T19:08:21.574Z,27.67
2023-02-24T19:10:48.211Z,34.75
2023-02-24T19:13:14.869Z,28.45
2023-02-24T19:15:41.613Z,33.42
2023-02-24T19:18:08.260Z,28.55
2023-02-24T19:20:34.933Z,29.42
2023-02-24T19:23:01.976Z,26.15
2023-02-24T19:25:28.588Z,33.50
2023-02-24T19:27:55.370Z,36.03
2023-02-24T19:30:22.052Z,33.80
2023-02-24T19:32:49.753Z,27.48
2023-02-24T19:35:16.852Z,25.30
2023-02-24T19:37:43.616Z,20.80
2023-02-24T19:40:11.127Z,25.85
2023-02-24T19:42:37.738Z,29.55
2023-02-24T19:45:05.025Z,33.90
2023-02-24T19:47:31.667Z,30.77
2023-02-24T19:49:58.460Z,34.92
2023-02-24T19:52:25.167Z,23.30
2023-02-24T19:54:52.094Z,23.45
2023-02-24T19:57:18.796Z,31.20
2023-02-24T19:59:45.562Z,28.13
2023-02-24T20:02:12.218Z,27.60
2023-02-24T20:04:39.017Z,28.35
2023-02-24T20:07:05.897Z,22.42
2023-02-24T20:09:32.879Z,26.38
2023-02-24T20:12:01.822Z,26.40
2023-02-24T20:14:29.691Z,28.17
2023-02-24T20:16:56.486Z,26.42
2023-02-24T20:19:23.247Z,29.85
2023-02-24T20:21:50.102Z,27.50
2023-02-24T20:24:18.419Z,27.80
2023-02-24T20:28:23.248Z,27.35
2023-02-24T20:30:51.324Z,26.45
2023-02-24T20:35:57.634Z,34.35
2023-02-24T20:38:24.424Z,26.80
2023-02-24T20:41:00.979Z,26.73
2023-02-24T20:43:28.251Z,28.30
2023-02-24T20:46:42.560Z,29.73
2023-02-24T20:49:11.873Z,27.55
2023-02-24T20:51:38.840Z,31.40
2023-02-24T20:54:07.584Z,27.38
2023-02-24T20:56:36.538Z,32.47
2023-02-24T20:59:15.162Z,32.88
2023-02-24T21:01:46.450Z,27.38
2023-02-24T21:04:15.428Z,26.00
2023-02-24T21:06:42.131Z,24.60
2023-02-24T21:09:08.957Z,23.52
2023-02-24T21:11:35.601Z,29.95
2023-02-24T21:14:02.840Z,27.23
2023-02-24T21:16:29.500Z,26.30
2023-02-24T21:18:58.759Z,25.23
2023-02-24T21:21:25.499Z,25.15
2023-02-24T21:23:52.221Z,27.88
2023-02-24T21:26:19.301Z,25.67
2023-02-24T21:28:46.646Z,25.38
2023-02-24T21:31:16.850Z,31.17
2023-02-24T21:33:44.089Z,24.10
2023-02-24T21:36:14.375Z,31.63
2023-02-24T21:38:41.737Z,25.63
2023-02-24T21:41:15.940Z,28.75
2023-02-24T21:43:44.333Z,19.40
2023-02-24T21:46:13.403Z,18.52
2023-02-24T21:48:40.905Z,26.33
2023-02-24T21:51:11.135Z,26.75
2023-02-24T21:53:39.435Z,28.27
2023-02-24T21:56:11.111Z,27.77
2023-02-24T21:58:39.435Z,24.15
2023-02-24T22:01:14.679Z,30.08
2023-02-24T22:03:41.726Z,20.35
2023-02-24T22:06:14.914Z,24.55
2023-02-24T22:08:45.652Z,27.20
2023-02-24T22:11:15.490Z,26.52
2023-02-24T22:13:43.468Z,24.92
2023-02-24T22:16:13.259Z,27.88
2023-02-24T22:18:40.011Z,20.45
2023-02-24T22:21:17.302Z,21.58
2023-02-24T22:23:45.553Z,29.60
2023-02-24T22:26:13.047Z,26.15
2023-02-24T22:28:41.930Z,26.05
2023-02-24T22:31:10.795Z,22.98
2023-02-24T22:33:43.412Z,24.90
2023-02-24T22:36:21.736Z,24.60
2023-02-24T22:38:48.729Z,22.75
2023-02-24T22:41:21.161Z,27.85
2023-02-24T22:44:25.420Z,22.42
2023-02-24T22:46:52.201Z,22.08
2023-02-24T22:49:18.962Z,24.50
2023-02-24T22:51:45.869Z,21.98
2023-02-24T22:54:12.513Z,22.63
2023-02-24T22:56:39.299Z,16.58
2023-02-24T23:01:44.375Z,28.00
2023-02-24T23:04:17.119Z,21.35
2023-02-24T23:06:44.621Z,23.33
2023-02-24T23:09:11.532Z,21.00
2023-02-24T23:11:41.325Z,22.33
2023-02-24T23:16:54.742Z,18.00
2023-02-24T23:19:22.973Z,28.83
2023-02-24T23:21:54.311Z,26.33
2023-02-24T23:24:22.377Z,21.95
2023-02-24T23:26:57.847Z,19.45
2023-02-24T23:29:26.694Z,20.38
2023-02-24T23:31:53.679Z,24.52
2023-02-24T23:34:20.499Z,33.55
2023-02-24T23:36:48.076Z,27.38
2023-02-24T23:39:18.410Z,29.05
2023-02-24T23:41:45.027Z,28.75
2023-02-24T23:44:12.571Z,21.33
2023-02-24T23:46:39.544Z,23.65
2023-02-24T23:49:06.221Z,23.48
2023-02-24T23:51:46.970Z,25.08
2023-02-24T23:54:14.804Z,23.35
2023-02-24T23:56:41.526Z,25.92
2023-02-24T23:59:08.178Z,18.90
